createdAt,value
2022-08-24T00:00:07.006Z,6.70
2022-08-24T00:00:17.029Z,8.10
2022-08-24T00:00:27.068Z,8.20
2022-08-24T00:00:37.101Z,7.40
2022-08-24T00:00:47.129Z,7.00
2022-08-24T00:00:57.176Z,6.50
2022-08-24T00:01:07.217Z,6.40
2022-08-24T00:01:17.238Z,5.30
2022-08-24T00:01:27.277Z,6.10
2022-08-24T00:01:37.366Z,6.80
2022-08-24T00:01:47.444Z,7.80
2022-08-24T00:01:57.575Z,7.60
2022-08-24T00:02:07.613Z,6.70
2022-08-24T00:02:18.587Z,7.00
2022-08-24T00:02:28.795Z,7.40
2022-08-24T00:02:38.879Z,7.20
2022-08-24T00:02:48.953Z,6.10
2022-08-24T00:02:58.953Z,7.10
2022-08-24T00:03:09.205Z,7.60
2022-08-24T00:03:19.241Z,8.50
2022-08-24T00:03:30.768Z,8.40
2022-08-24T00:03:40.140Z,7.90
2022-08-24T00:03:55.237Z,6.60
2022-08-24T00:04:01.159Z,6.10
2022-08-24T00:04:11.278Z,5.50
2022-08-24T00:04:21.319Z,7.00
2022-08-24T00:04:32.027Z,7.00
2022-08-24T00:04:41.411Z,9.30
2022-08-24T00:04:51.439Z,9.60
2022-08-24T00:05:01.489Z,9.40
2022-08-24T00:05:14.613Z,8.80
2022-08-24T00:05:21.575Z,8.10
2022-08-24T00:05:31.594Z,8.00
2022-08-24T00:05:41.618Z,7.70
2022-08-24T00:05:51.650Z,8.90
2022-08-24T00:06:01.698Z,9.20
2022-08-24T00:06:11.728Z,9.00
2022-08-24T00:06:21.878Z,7.10
2022-08-24T00:06:31.928Z,7.70
2022-08-24T00:06:41.958Z,8.10
2022-08-24T00:06:52.018Z,9.20
2022-08-24T00:07:02.057Z,10.10
2022-08-24T00:07:17.981Z,9.80
2022-08-24T00:07:27.427Z,7.60
2022-08-24T00:07:33.999Z,7.10
2022-08-24T00:07:44.039Z,7.30
2022-08-24T00:07:54.070Z,8.00
2022-08-24T00:08:04.199Z,6.80
2022-08-24T00:08:14.107Z,7.10
2022-08-24T00:08:24.127Z,6.70
2022-08-24T00:08:34.161Z,6.60
2022-08-24T00:08:44.189Z,6.50
2022-08-24T00:08:54.226Z,7.30
2022-08-24T00:09:04.263Z,9.30
2022-08-24T00:09:14.289Z,8.20
2022-08-24T00:09:24.337Z,9.50
2022-08-24T00:09:34.378Z,7.80
2022-08-24T00:09:44.420Z,9.80
2022-08-24T00:09:55.395Z,10.30
2022-08-24T00:10:05.427Z,10.20
2022-08-24T00:10:15.478Z,9.40
2022-08-24T00:10:25.519Z,7.50
2022-08-24T00:10:35.569Z,6.50
2022-08-24T00:10:45.617Z,6.20
2022-08-24T00:10:55.656Z,6.30
2022-08-24T00:11:05.746Z,7.90
2022-08-24T00:11:15.779Z,7.40
2022-08-24T00:11:25.836Z,7.00
2022-08-24T00:11:35.890Z,6.60
2022-08-24T00:11:45.939Z,9.60
2022-08-24T00:11:55.990Z,10.70
2022-08-24T00:12:06.019Z,10.60
2022-08-24T00:12:16.186Z,7.70
2022-08-24T00:12:26.222Z,7.80
2022-08-24T00:12:36.278Z,7.90
2022-08-24T00:12:46.342Z,7.70
2022-08-24T00:12:56.388Z,7.00
2022-08-24T00:13:06.419Z,7.20
2022-08-24T00:13:16.460Z,8.30
2022-08-24T00:13:26.489Z,8.10
2022-08-24T00:13:38.497Z,8.70
2022-08-24T00:13:46.531Z,8.90
2022-08-24T00:13:56.559Z,9.60
2022-08-24T00:14:06.599Z,7.90
2022-08-24T00:14:16.652Z,6.40
2022-08-24T00:14:26.669Z,6.40
2022-08-24T00:14:36.708Z,7.50
2022-08-24T00:14:46.737Z,7.70
2022-08-24T00:14:56.797Z,9.10
2022-08-24T00:15:06.839Z,9.50
2022-08-24T00:15:16.883Z,10.80
2022-08-24T00:15:26.938Z,9.60
2022-08-24T00:15:36.969Z,10.00
2022-08-24T00:15:47.016Z,11.70
2022-08-24T00:15:57.060Z,10.20
2022-08-24T00:16:07.194Z,8.70
2022-08-24T00:16:17.363Z,5.40
2022-08-24T00:16:27.417Z,6.70
2022-08-24T00:16:37.472Z,9.40
2022-08-24T00:16:47.556Z,9.80
2022-08-24T00:16:57.786Z,8.60
2022-08-24T00:17:07.701Z,6.80
2022-08-24T00:17:17.769Z,6.20
2022-08-24T00:17:27.809Z,6.20
2022-08-24T00:17:37.836Z,6.00
2022-08-24T00:17:47.890Z,7.50
2022-08-24T00:17:58.014Z,8.80
2022-08-24T00:18:08.109Z,9.70
2022-08-24T00:18:18.149Z,9.40
2022-08-24T00:18:28.184Z,8.30
2022-08-24T00:18:38.240Z,8.60
2022-08-24T00:18:48.282Z,8.80
2022-08-24T00:18:58.327Z,9.20
2022-08-24T00:19:08.356Z,8.70
2022-08-24T00:19:18.400Z,8.00
2022-08-24T00:19:28.448Z,7.60
2022-08-24T00:19:38.497Z,6.70
2022-08-24T00:19:48.531Z,8.50
2022-08-24T00:19:58.566Z,9.80
2022-08-24T00:20:08.606Z,9.40
2022-08-24T00:20:18.638Z,7.60
2022-08-24T00:20:28.687Z,6.20
2022-08-24T00:20:42.075Z,6.20
2022-08-24T00:20:49.719Z,6.50
2022-08-24T00:20:59.768Z,6.90
2022-08-24T00:21:09.818Z,8.30
2022-08-24T00:21:19.848Z,10.10
2022-08-24T00:21:29.909Z,12.00
2022-08-24T00:21:39.960Z,10.80
2022-08-24T00:21:50.021Z,10.00
2022-08-24T00:22:00.052Z,8.10
2022-08-24T00:22:10.090Z,8.50
2022-08-24T00:22:20.139Z,8.10
2022-08-24T00:22:30.190Z,8.50
2022-08-24T00:22:40.228Z,9.40
2022-08-24T00:22:50.434Z,8.50
2022-08-24T00:23:00.328Z,7.30
2022-08-24T00:23:10.367Z,6.00
2022-08-24T00:23:20.416Z,6.10
2022-08-24T00:23:30.469Z,6.60
2022-08-24T00:23:40.499Z,8.50
2022-08-24T00:23:50.539Z,8.60
2022-08-24T00:24:00.609Z,9.00
2022-08-24T00:24:10.653Z,8.10
2022-08-24T00:24:20.681Z,8.90
2022-08-24T00:24:30.719Z,9.00
2022-08-24T00:24:40.760Z,8.70
2022-08-24T00:24:50.819Z,8.10
2022-08-24T00:25:00.852Z,7.60
2022-08-24T00:25:10.903Z,7.20
2022-08-24T00:25:20.946Z,7.30
2022-08-24T00:25:31.000Z,7.60
2022-08-24T00:25:41.038Z,7.30
2022-08-24T00:25:51.067Z,7.40
2022-08-24T00:26:01.098Z,8.30
2022-08-24T00:26:11.149Z,8.70
2022-08-24T00:26:28.726Z,9.20
2022-08-24T00:26:32.142Z,8.70
2022-08-24T00:26:42.188Z,10.10
2022-08-24T00:26:52.249Z,10.20
2022-08-24T00:27:02.309Z,9.90
2022-08-24T00:27:12.360Z,9.10
2022-08-24T00:27:22.399Z,9.40
2022-08-24T00:27:32.452Z,10.50
2022-08-24T00:27:42.491Z,11.00
2022-08-24T00:27:52.509Z,10.60
2022-08-24T00:28:02.649Z,11.00
2022-08-24T00:28:12.529Z,9.00
2022-08-24T00:28:22.729Z,7.70
2022-08-24T00:28:32.860Z,6.00
2022-08-24T00:28:43.029Z,5.80
2022-08-24T00:28:53.189Z,6.40
2022-08-24T00:29:07.436Z,8.30
2022-08-24T00:29:13.499Z,10.10
2022-08-24T00:29:23.519Z,9.60
2022-08-24T00:29:33.680Z,8.10
2022-08-24T00:29:43.839Z,6.90
2022-08-24T00:29:54.000Z,7.10
2022-08-24T00:30:04.169Z,8.60
2022-08-24T00:30:14.197Z,10.20
2022-08-24T00:30:24.362Z,14.80
2022-08-24T00:30:34.522Z,12.40
2022-08-24T00:30:44.686Z,10.80
2022-08-24T00:30:54.849Z,6.50
2022-08-24T00:31:08.180Z,7.00
2022-08-24T00:31:15.183Z,9.00
2022-08-24T00:31:25.186Z,8.70
2022-08-24T00:31:35.294Z,10.30
2022-08-24T00:31:45.370Z,10.00
2022-08-24T00:31:55.402Z,9.40
2022-08-24T00:32:05.442Z,7.80
2022-08-24T00:32:15.469Z,8.50
2022-08-24T00:32:25.635Z,9.70
2022-08-24T00:32:35.802Z,10.50
2022-08-24T00:32:45.959Z,8.30
2022-08-24T00:32:56.119Z,7.80
2022-08-24T00:33:06.291Z,7.80
2022-08-24T00:33:16.449Z,7.50
2022-08-24T00:33:26.511Z,7.30
2022-08-24T00:33:36.559Z,5.90
2022-08-24T00:33:46.600Z,5.90
2022-08-24T00:33:56.629Z,6.30
2022-08-24T00:34:06.708Z,7.30
2022-08-24T00:34:16.742Z,8.50
2022-08-24T00:34:26.785Z,7.70
2022-08-24T00:34:36.827Z,8.60
2022-08-24T00:34:58.340Z,7.50
2022-08-24T00:34:58.757Z,8.40
2022-08-24T00:35:07.928Z,8.50
2022-08-24T00:35:17.989Z,7.50
2022-08-24T00:35:28.030Z,8.40
2022-08-24T00:35:38.070Z,9.30
2022-08-24T00:35:48.109Z,9.90
2022-08-24T00:35:58.187Z,8.10
2022-08-24T00:36:08.239Z,6.90
2022-08-24T00:36:18.279Z,8.50
2022-08-24T00:36:28.326Z,8.60
2022-08-24T00:36:38.487Z,8.40
2022-08-24T00:36:48.510Z,7.20
2022-08-24T00:36:58.539Z,7.30
2022-08-24T00:37:08.579Z,8.00
2022-08-24T00:37:18.608Z,8.90
2022-08-24T00:37:28.851Z,9.90
2022-08-24T00:37:38.739Z,10.50
2022-08-24T00:37:48.909Z,11.10
2022-08-24T00:37:58.992Z,10.10
2022-08-24T00:38:09.031Z,9.40
2022-08-24T00:38:19.050Z,9.30
2022-08-24T00:38:29.776Z,9.00
2022-08-24T00:38:39.200Z,8.90
2022-08-24T00:38:49.241Z,7.50
2022-08-24T00:38:59.265Z,8.40
2022-08-24T00:39:09.317Z,7.20
2022-08-24T00:39:19.339Z,8.40
2022-08-24T00:39:29.383Z,7.40
2022-08-24T00:39:39.419Z,7.30
2022-08-24T00:39:49.641Z,6.00
2022-08-24T00:39:59.752Z,5.80
2022-08-24T00:40:09.905Z,7.40
2022-08-24T00:40:19.998Z,9.10
2022-08-24T00:40:30.126Z,10.70
2022-08-24T00:40:40.170Z,9.90
2022-08-24T00:40:50.197Z,8.40
2022-08-24T00:41:00.241Z,7.60
2022-08-24T00:41:10.279Z,8.80
2022-08-24T00:41:20.332Z,9.00
2022-08-24T00:41:30.380Z,8.80
2022-08-24T00:41:40.419Z,8.50
2022-08-24T00:41:50.470Z,9.40
2022-08-24T00:42:00.506Z,10.10
2022-08-24T00:42:10.579Z,8.10
2022-08-24T00:42:20.639Z,7.30
2022-08-24T00:42:30.679Z,6.90
2022-08-24T00:42:40.728Z,7.40
2022-08-24T00:42:50.791Z,7.40
2022-08-24T00:43:00.830Z,7.40
2022-08-24T00:43:10.868Z,6.60
2022-08-24T00:43:20.921Z,6.30
2022-08-24T00:43:30.960Z,6.00
2022-08-24T00:43:41.021Z,7.60
2022-08-24T00:43:51.058Z,8.30
2022-08-24T00:44:01.088Z,8.30
2022-08-24T00:44:11.129Z,7.00
2022-08-24T00:44:21.179Z,5.60
2022-08-24T00:44:31.210Z,6.00
2022-08-24T00:44:41.247Z,6.80
2022-08-24T00:44:51.289Z,8.20
2022-08-24T00:45:01.328Z,7.70
2022-08-24T00:45:11.379Z,6.40
2022-08-24T00:45:21.452Z,8.00
2022-08-24T00:45:31.503Z,9.10
2022-08-24T00:45:41.651Z,14.30
2022-08-24T00:45:51.742Z,12.70
2022-08-24T00:46:01.805Z,12.00
2022-08-24T00:46:11.895Z,8.50
2022-08-24T00:46:21.931Z,9.20
2022-08-24T00:46:31.980Z,10.20
2022-08-24T00:46:42.030Z,10.10
2022-08-24T00:46:52.067Z,9.30
2022-08-24T00:47:02.100Z,10.50
2022-08-24T00:47:12.149Z,9.50
2022-08-24T00:47:22.198Z,10.80
2022-08-24T00:47:32.232Z,8.30
2022-08-24T00:47:42.269Z,7.80
2022-08-24T00:47:53.259Z,7.20
2022-08-24T00:48:03.427Z,7.10
2022-08-24T00:48:13.380Z,7.80
2022-08-24T00:48:23.419Z,7.10
2022-08-24T00:48:33.468Z,6.70
2022-08-24T00:48:43.499Z,6.80
2022-08-24T00:48:53.550Z,7.10
2022-08-24T00:49:03.589Z,7.70
2022-08-24T00:49:13.630Z,7.20
2022-08-24T00:49:23.691Z,8.30
2022-08-24T00:49:33.729Z,7.50
2022-08-24T00:49:43.769Z,7.90
2022-08-24T00:49:53.811Z,7.30
2022-08-24T00:50:03.840Z,8.20
2022-08-24T00:50:13.900Z,9.30
2022-08-24T00:50:23.933Z,10.10
2022-08-24T00:50:33.989Z,10.50
2022-08-24T00:50:44.037Z,8.80
2022-08-24T00:50:54.083Z,8.10
2022-08-24T00:51:04.068Z,8.00
2022-08-24T00:51:14.120Z,7.70
2022-08-24T00:51:24.200Z,7.60
2022-08-24T00:51:34.287Z,6.70
2022-08-24T00:51:44.320Z,7.20
2022-08-24T00:51:54.378Z,8.90
2022-08-24T00:52:04.673Z,11.00
2022-08-24T00:52:14.707Z,12.60
2022-08-24T00:52:24.760Z,10.00
2022-08-24T00:52:34.894Z,9.20
2022-08-24T00:52:44.950Z,7.50
2022-08-24T00:52:54.999Z,7.30
2022-08-24T00:53:05.031Z,7.00
2022-08-24T00:53:15.067Z,6.30
2022-08-24T00:53:25.111Z,8.00
2022-08-24T00:53:35.390Z,9.00
2022-08-24T00:53:45.260Z,9.60
2022-08-24T00:53:55.318Z,9.80
2022-08-24T00:54:05.357Z,9.10
2022-08-24T00:54:15.408Z,8.10
2022-08-24T00:54:25.457Z,7.30
2022-08-24T00:54:35.491Z,7.40
2022-08-24T00:54:46.611Z,7.50
2022-08-24T00:54:55.680Z,7.00
2022-08-24T00:55:05.740Z,8.60
2022-08-24T00:55:15.800Z,8.80
2022-08-24T00:55:25.839Z,8.70
2022-08-24T00:55:35.890Z,6.80
2022-08-24T00:55:45.937Z,7.20
2022-08-24T00:55:55.982Z,6.90
2022-08-24T00:56:06.027Z,7.90
2022-08-24T00:56:16.080Z,8.40
2022-08-24T00:56:26.127Z,8.10
2022-08-24T00:56:36.261Z,8.10
2022-08-24T00:56:46.301Z,7.40
2022-08-24T00:56:56.354Z,9.50
2022-08-24T00:57:06.389Z,8.80
2022-08-24T00:57:16.556Z,9.80
2022-08-24T00:57:26.590Z,8.40
2022-08-24T00:57:36.641Z,9.60
2022-08-24T00:57:46.694Z,8.40
2022-08-24T00:57:56.785Z,8.50
2022-08-24T00:58:06.799Z,7.60
2022-08-24T00:58:17.182Z,7.50
2022-08-24T00:58:27.027Z,7.90
2022-08-24T00:58:37.170Z,7.80
2022-08-24T00:58:47.200Z,7.70
2022-08-24T00:58:58.170Z,7.10
2022-08-24T00:59:08.200Z,6.20
2022-08-24T00:59:18.260Z,5.00
2022-08-24T00:59:28.290Z,6.10
2022-08-24T00:59:38.380Z,7.00
2022-08-24T00:59:48.428Z,7.30
2022-08-24T00:59:58.471Z,6.10
2022-08-24T01:00:08.518Z,6.60
2022-08-24T01:00:18.560Z,7.30
2022-08-24T01:00:28.581Z,9.20
2022-08-24T01:00:38.677Z,8.20
2022-08-24T01:00:48.885Z,7.10
2022-08-24T01:00:58.897Z,5.90
2022-08-24T01:01:08.857Z,6.10
2022-08-24T01:01:18.971Z,7.30
2022-08-24T01:01:29.094Z,7.30
2022-08-24T01:01:39.235Z,8.60
2022-08-24T01:01:49.299Z,8.90
2022-08-24T01:02:05.284Z,9.20
2022-08-24T01:02:15.586Z,8.60
2022-08-24T01:02:21.310Z,8.00
2022-08-24T01:02:31.337Z,9.00
2022-08-24T01:02:41.430Z,10.00
2022-08-24T01:02:51.471Z,10.80
2022-08-24T01:03:01.531Z,9.90
2022-08-24T01:03:11.570Z,9.80
2022-08-24T01:03:21.621Z,8.50
2022-08-24T01:03:31.700Z,8.70
2022-08-24T01:03:41.742Z,9.20
2022-08-24T01:03:56.575Z,9.90
2022-08-24T01:04:02.761Z,11.00
2022-08-24T01:04:12.860Z,8.50
2022-08-24T01:04:22.927Z,8.80
2022-08-24T01:04:32.965Z,8.00
2022-08-24T01:04:42.970Z,9.00
2022-08-24T01:04:53.032Z,7.90
2022-08-24T01:05:03.070Z,7.90
2022-08-24T01:05:13.108Z,7.70
2022-08-24T01:05:23.140Z,9.00
2022-08-24T01:05:33.188Z,8.90
2022-08-24T01:05:43.221Z,8.40
2022-08-24T01:05:53.309Z,8.80
2022-08-24T01:06:03.371Z,9.50
2022-08-24T01:06:13.429Z,9.80
2022-08-24T01:06:23.460Z,9.00
2022-08-24T01:06:33.500Z,7.90
2022-08-24T01:06:43.552Z,7.90
2022-08-24T01:06:53.618Z,7.60
2022-08-24T01:07:03.660Z,9.50
2022-08-24T01:07:13.790Z,9.00
2022-08-24T01:07:23.831Z,8.20
2022-08-24T01:07:33.870Z,8.80
2022-08-24T01:07:43.931Z,10.60
2022-08-24T01:07:53.982Z,12.80
2022-08-24T01:08:04.241Z,11.50
2022-08-24T01:08:14.080Z,10.30
2022-08-24T01:08:24.102Z,8.90
2022-08-24T01:08:34.149Z,8.30
2022-08-24T01:08:44.178Z,7.50
2022-08-24T01:08:56.809Z,8.60
2022-08-24T01:09:04.260Z,8.50
2022-08-24T01:09:14.277Z,8.70
2022-08-24T01:09:24.310Z,7.80
2022-08-24T01:09:34.400Z,7.90
2022-08-24T01:09:44.437Z,9.30
2022-08-24T01:09:54.531Z,8.50
2022-08-24T01:10:04.589Z,9.80
2022-08-24T01:10:14.651Z,8.20
2022-08-24T01:10:24.770Z,7.40
2022-08-24T01:10:34.821Z,5.60
2022-08-24T01:10:44.879Z,7.20
2022-08-24T01:10:54.942Z,7.30
2022-08-24T01:11:04.979Z,7.70
2022-08-24T01:11:15.030Z,7.10
2022-08-24T01:11:25.080Z,7.20
2022-08-24T01:11:35.119Z,7.70
2022-08-24T01:11:45.160Z,6.50
2022-08-24T01:11:55.260Z,6.70
2022-08-24T01:12:05.311Z,7.40
2022-08-24T01:12:15.351Z,7.20
2022-08-24T01:12:25.399Z,7.90
2022-08-24T01:12:35.432Z,6.70
2022-08-24T01:12:48.230Z,8.00
2022-08-24T01:13:00.706Z,8.70
2022-08-24T01:13:06.539Z,8.80
2022-08-24T01:13:16.582Z,8.50
2022-08-24T01:13:26.623Z,7.80
2022-08-24T01:13:36.680Z,8.80
2022-08-24T01:13:46.738Z,9.70
2022-08-24T01:13:56.890Z,11.00
2022-08-24T01:14:07.012Z,9.80
2022-08-24T01:14:17.031Z,9.90
2022-08-24T01:14:27.111Z,9.00
2022-08-24T01:14:37.140Z,9.40
2022-08-24T01:14:47.187Z,9.30
2022-08-24T01:14:57.250Z,9.40
2022-08-24T01:15:07.321Z,10.60
2022-08-24T01:15:17.364Z,9.70
2022-08-24T01:15:27.499Z,7.50
2022-08-24T01:15:37.548Z,6.00
2022-08-24T01:15:47.657Z,6.50
2022-08-24T01:15:57.805Z,7.30
2022-08-24T01:16:07.912Z,8.90
2022-08-24T01:16:18.052Z,8.80
2022-08-24T01:16:28.135Z,9.10
2022-08-24T01:16:38.203Z,10.00
2022-08-24T01:16:48.302Z,11.60
2022-08-24T01:16:58.348Z,11.50
2022-08-24T01:17:08.420Z,11.30
2022-08-24T01:17:18.470Z,8.80
2022-08-24T01:17:28.512Z,8.10
2022-08-24T01:17:39.044Z,8.80
2022-08-24T01:17:48.763Z,9.60
2022-08-24T01:17:58.877Z,9.40
2022-08-24T01:18:08.960Z,9.80
2022-08-24T01:18:19.010Z,8.90
2022-08-24T01:18:29.053Z,9.10
2022-08-24T01:18:39.071Z,6.80
2022-08-24T01:18:49.129Z,6.90
2022-08-24T01:18:59.147Z,6.90
2022-08-24T01:19:09.201Z,8.40
2022-08-24T01:19:19.240Z,9.90
2022-08-24T01:19:29.287Z,10.30
2022-08-24T01:19:39.359Z,9.80
2022-08-24T01:19:49.390Z,8.60
2022-08-24T01:19:59.431Z,8.30
2022-08-24T01:20:09.713Z,9.00
2022-08-24T01:20:19.767Z,10.40
2022-08-24T01:20:29.810Z,10.20
2022-08-24T01:20:39.860Z,9.90
2022-08-24T01:20:49.900Z,9.00
2022-08-24T01:20:59.922Z,8.30
2022-08-24T01:21:09.963Z,7.90
2022-08-24T01:21:19.990Z,7.40
2022-08-24T01:21:30.031Z,8.80
2022-08-24T01:21:40.099Z,7.90
2022-08-24T01:21:50.120Z,9.10
2022-08-24T01:22:00.170Z,7.20
2022-08-24T01:22:10.210Z,9.30
2022-08-24T01:22:20.262Z,8.90
2022-08-24T01:22:30.300Z,11.20
2022-08-24T01:22:40.343Z,9.80
2022-08-24T01:22:50.409Z,11.20
2022-08-24T01:23:00.445Z,10.10
2022-08-24T01:23:10.500Z,12.50
2022-08-24T01:23:20.541Z,10.40
2022-08-24T01:23:36.392Z,9.40
2022-08-24T01:23:41.561Z,6.30
2022-08-24T01:23:51.598Z,5.80
2022-08-24T01:24:01.630Z,7.20
2022-08-24T01:24:11.669Z,7.90
2022-08-24T01:24:21.800Z,9.50
2022-08-24T01:24:31.830Z,9.70
2022-08-24T01:24:41.877Z,10.00
2022-08-24T01:24:51.910Z,10.30
2022-08-24T01:25:01.956Z,10.00
2022-08-24T01:25:12.021Z,8.90
2022-08-24T01:25:22.070Z,8.50
2022-08-24T01:25:32.210Z,8.90
2022-08-24T01:25:42.380Z,7.80
2022-08-24T01:25:52.402Z,7.40
2022-08-24T01:26:02.440Z,7.70
2022-08-24T01:26:12.480Z,9.10
2022-08-24T01:26:22.521Z,9.10
2022-08-24T01:26:32.650Z,7.50
2022-08-24T01:26:42.707Z,7.10
2022-08-24T01:26:52.748Z,7.60
2022-08-24T01:27:02.770Z,8.10
2022-08-24T01:27:12.818Z,7.70
2022-08-24T01:27:26.329Z,8.70
2022-08-24T01:27:33.811Z,9.30
2022-08-24T01:27:43.860Z,9.30
2022-08-24T01:27:53.892Z,7.90
2022-08-24T01:28:05.495Z,8.10
2022-08-24T01:28:14.040Z,9.30
2022-08-24T01:28:27.775Z,10.30
2022-08-24T01:28:34.299Z,9.70
2022-08-24T01:28:44.320Z,10.30
2022-08-24T01:28:54.373Z,9.10
2022-08-24T01:29:04.874Z,8.30
2022-08-24T01:29:14.521Z,6.50
2022-08-24T01:29:24.611Z,8.40
2022-08-24T01:29:34.691Z,8.90
2022-08-24T01:29:44.810Z,10.80
2022-08-24T01:29:54.970Z,9.10
2022-08-24T01:30:05.010Z,10.10
2022-08-24T01:30:15.052Z,9.00
2022-08-24T01:30:30.444Z,11.30
2022-08-24T01:30:36.829Z,10.70
2022-08-24T01:30:46.250Z,9.40
2022-08-24T01:30:56.310Z,8.90
2022-08-24T01:31:06.371Z,8.20
2022-08-24T01:31:16.434Z,8.50
2022-08-24T01:31:26.565Z,8.50
2022-08-24T01:31:36.542Z,9.10
2022-08-24T01:31:46.711Z,7.50
2022-08-24T01:31:56.750Z,6.20
2022-08-24T01:32:06.799Z,5.40
2022-08-24T01:32:16.855Z,6.50
2022-08-24T01:32:26.939Z,8.60
2022-08-24T01:32:36.991Z,9.20
2022-08-24T01:32:47.020Z,9.80
2022-08-24T01:32:57.070Z,8.60
2022-08-24T01:33:07.133Z,8.50
2022-08-24T01:33:17.160Z,8.60
2022-08-24T01:33:27.209Z,8.10
2022-08-24T01:33:37.230Z,9.00
2022-08-24T01:33:47.269Z,8.50
2022-08-24T01:33:57.312Z,10.40
2022-08-24T01:34:07.359Z,9.70
2022-08-24T01:34:17.400Z,10.00
2022-08-24T01:34:27.437Z,9.00
2022-08-24T01:34:37.460Z,10.10
2022-08-24T01:34:47.492Z,9.20
2022-08-24T01:34:57.558Z,10.20
2022-08-24T01:35:07.601Z,10.90
2022-08-24T01:35:17.642Z,12.80
2022-08-24T01:35:27.681Z,11.20
2022-08-24T01:35:37.722Z,9.80
2022-08-24T01:35:47.761Z,9.20
2022-08-24T01:35:57.810Z,11.20
2022-08-24T01:36:07.858Z,11.20
2022-08-24T01:36:17.891Z,11.90
2022-08-24T01:36:28.377Z,10.70
2022-08-24T01:36:38.081Z,9.90
2022-08-24T01:36:48.120Z,8.90
2022-08-24T01:36:58.160Z,7.60
2022-08-24T01:37:08.189Z,7.60
2022-08-24T01:37:23.588Z,7.80
2022-08-24T01:37:33.669Z,8.90
2022-08-24T01:37:43.748Z,9.20
2022-08-24T01:37:53.820Z,8.90
2022-08-24T01:38:04.077Z,7.80
2022-08-24T01:38:13.951Z,7.90
2022-08-24T01:38:24.078Z,9.10
2022-08-24T01:38:34.140Z,9.20
2022-08-24T01:38:44.218Z,8.40
2022-08-24T01:38:54.300Z,8.20
2022-08-24T01:39:04.359Z,8.20
2022-08-24T01:39:14.448Z,9.00
2022-08-24T01:39:24.520Z,9.00
2022-08-24T01:39:34.582Z,8.30
2022-08-24T01:39:44.654Z,7.70
2022-08-24T01:39:54.730Z,7.00
2022-08-24T01:40:04.782Z,6.90
2022-08-24T01:40:14.889Z,7.60
2022-08-24T01:40:25.011Z,16.40
2022-08-24T01:40:35.100Z,17.50
2022-08-24T01:40:45.258Z,17.90
2022-08-24T01:40:55.310Z,9.30
2022-08-24T01:41:05.439Z,11.10
2022-08-24T01:41:15.442Z,13.00
2022-08-24T01:41:28.859Z,13.00
2022-08-24T01:41:35.573Z,10.50
2022-08-24T01:41:45.602Z,8.20
2022-08-24T01:41:55.650Z,8.50
2022-08-24T01:42:05.721Z,9.50
2022-08-24T01:42:15.772Z,13.30
2022-08-24T01:42:25.940Z,13.60
2022-08-24T01:42:36.011Z,14.10
2022-08-24T01:42:46.050Z,10.50
2022-08-24T01:42:56.129Z,9.50
2022-08-24T01:43:06.170Z,9.90
2022-08-24T01:43:16.229Z,9.80
2022-08-24T01:43:26.250Z,9.60
2022-08-24T01:43:37.296Z,8.90
2022-08-24T01:43:46.481Z,8.10
2022-08-24T01:43:56.528Z,8.50
2022-08-24T01:44:06.570Z,8.10
2022-08-24T01:44:16.613Z,9.80
2022-08-24T01:44:26.651Z,9.40
2022-08-24T01:44:36.700Z,10.40
2022-08-24T01:44:46.747Z,10.00
2022-08-24T01:44:56.791Z,9.80
2022-08-24T01:45:06.858Z,8.60
2022-08-24T01:45:16.920Z,10.10
2022-08-24T01:45:26.981Z,9.80
2022-08-24T01:45:37.120Z,9.60
2022-08-24T01:45:47.229Z,7.50
2022-08-24T01:45:57.306Z,8.00
2022-08-24T01:46:07.440Z,8.40
2022-08-24T01:46:17.571Z,8.90
2022-08-24T01:46:27.649Z,7.90
2022-08-24T01:46:37.975Z,8.00
2022-08-24T01:46:47.959Z,7.00
2022-08-24T01:46:58.099Z,7.70
2022-08-24T01:47:08.200Z,7.80
2022-08-24T01:47:18.280Z,8.30
2022-08-24T01:47:28.350Z,8.50
2022-08-24T01:47:38.460Z,8.20
2022-08-24T01:47:48.540Z,7.60
2022-08-24T01:47:58.737Z,7.60
2022-08-24T01:48:08.638Z,8.10
2022-08-24T01:48:18.747Z,9.80
2022-08-24T01:48:28.831Z,9.80
2022-08-24T01:48:38.908Z,10.90
2022-08-24T01:48:48.993Z,11.20
2022-08-24T01:48:59.070Z,11.20
2022-08-24T01:49:09.151Z,9.90
2022-08-24T01:49:19.231Z,8.60
2022-08-24T01:49:29.320Z,9.30
2022-08-24T01:49:39.405Z,11.10
2022-08-24T01:49:49.482Z,10.60
2022-08-24T01:49:59.588Z,9.50
2022-08-24T01:50:09.671Z,9.10
2022-08-24T01:50:19.750Z,10.00
2022-08-24T01:50:29.834Z,10.90
2022-08-24T01:50:39.921Z,9.20
2022-08-24T01:50:49.933Z,10.00
2022-08-24T01:51:00.010Z,11.60
2022-08-24T01:51:10.092Z,13.10
2022-08-24T01:51:20.169Z,12.20
2022-08-24T01:51:30.229Z,9.70
2022-08-24T01:51:40.320Z,9.10
2022-08-24T01:51:50.390Z,9.70
2022-08-24T01:52:00.471Z,9.50
2022-08-24T01:52:10.553Z,8.40
2022-08-24T01:52:20.631Z,8.50
2022-08-24T01:52:54.677Z,9.80
2022-08-24T01:53:03.926Z,9.10
2022-08-24T01:53:04.766Z,7.40
2022-08-24T01:53:05.794Z,7.50
2022-08-24T01:53:13.750Z,10.20
2022-08-24T01:53:23.837Z,10.40
2022-08-24T01:53:33.899Z,9.50
2022-08-24T01:53:43.974Z,7.10
2022-08-24T01:53:54.036Z,9.40
2022-08-24T01:54:04.155Z,12.30
2022-08-24T01:54:14.210Z,13.80
2022-08-24T01:54:24.311Z,11.70
2022-08-24T01:54:34.388Z,11.70
2022-08-24T01:54:44.454Z,10.70
2022-08-24T01:54:54.573Z,11.70
2022-08-24T01:55:04.651Z,10.20
2022-08-24T01:55:14.720Z,11.00
2022-08-24T01:55:24.870Z,10.20
2022-08-24T01:55:34.960Z,10.70
2022-08-24T01:55:45.080Z,10.40
2022-08-24T01:55:55.169Z,10.30
2022-08-24T01:56:05.240Z,10.10
2022-08-24T01:56:15.314Z,10.10
2022-08-24T01:56:25.402Z,10.90
2022-08-24T01:56:35.482Z,9.70
2022-08-24T01:56:45.633Z,9.50
2022-08-24T01:56:55.691Z,8.90
2022-08-24T01:57:05.760Z,9.00
2022-08-24T01:57:16.051Z,8.90
2022-08-24T01:57:25.930Z,9.10
2022-08-24T01:57:35.999Z,8.90
2022-08-24T01:57:46.080Z,12.20
2022-08-24T01:57:56.191Z,13.60
2022-08-24T01:58:06.288Z,14.00
2022-08-24T01:58:16.401Z,10.00
2022-08-24T01:58:26.481Z,9.60
2022-08-24T01:58:36.562Z,9.50
2022-08-24T01:58:46.637Z,11.60
2022-08-24T01:58:56.702Z,10.40
2022-08-24T01:59:06.792Z,10.80
2022-08-24T01:59:16.862Z,8.50
2022-08-24T01:59:26.957Z,11.00
2022-08-24T01:59:37.020Z,12.00
2022-08-24T01:59:47.110Z,12.20
2022-08-24T01:59:57.180Z,9.50
2022-08-24T02:00:07.469Z,8.00
2022-08-24T02:00:17.542Z,7.50
2022-08-24T02:00:27.630Z,6.50
2022-08-24T02:00:37.707Z,7.40
2022-08-24T02:00:47.763Z,9.50
2022-08-24T02:00:57.841Z,10.40
2022-08-24T02:01:07.901Z,9.30
2022-08-24T02:01:17.970Z,8.60
2022-08-24T02:01:28.075Z,9.40
2022-08-24T02:01:38.208Z,9.90
2022-08-24T02:01:48.366Z,9.60
2022-08-24T02:01:58.440Z,9.20
2022-08-24T02:02:08.427Z,9.20
2022-08-24T02:02:18.531Z,10.10
2022-08-24T02:02:28.649Z,10.30
2022-08-24T02:02:38.742Z,9.40
2022-08-24T02:02:48.892Z,8.70
2022-08-24T02:02:59.219Z,8.40
2022-08-24T02:03:09.146Z,9.90
2022-08-24T02:03:19.117Z,10.60
2022-08-24T02:03:30.423Z,11.50
2022-08-24T02:03:39.320Z,11.70
2022-08-24T02:03:51.818Z,10.10
2022-08-24T02:03:59.560Z,11.30
2022-08-24T02:04:09.774Z,10.30
2022-08-24T02:04:19.673Z,12.70
2022-08-24T02:04:29.663Z,12.30
2022-08-24T02:04:39.753Z,11.50
2022-08-24T02:04:49.791Z,9.80
2022-08-24T02:04:59.851Z,8.10
2022-08-24T02:05:09.930Z,9.90
2022-08-24T02:05:19.998Z,9.30
2022-08-24T02:05:30.060Z,9.50
2022-08-24T02:05:40.119Z,8.40
2022-08-24T02:05:50.201Z,8.20
2022-08-24T02:06:00.272Z,7.90
2022-08-24T02:06:10.332Z,8.20
2022-08-24T02:06:20.400Z,9.20
2022-08-24T02:06:30.460Z,11.30
2022-08-24T02:06:40.540Z,10.60
2022-08-24T02:06:50.621Z,11.40
2022-08-24T02:07:00.695Z,9.10
2022-08-24T02:07:10.751Z,9.30
2022-08-24T02:07:20.838Z,7.50
2022-08-24T02:07:30.880Z,8.70
2022-08-24T02:07:40.941Z,9.20
2022-08-24T02:07:51.021Z,11.70
2022-08-24T02:08:01.100Z,12.10
2022-08-24T02:08:11.170Z,11.30
2022-08-24T02:08:21.221Z,9.80
2022-08-24T02:08:31.282Z,8.70
2022-08-24T02:08:41.362Z,8.60
2022-08-24T02:08:51.432Z,9.90
2022-08-24T02:09:01.498Z,11.00
2022-08-24T02:09:11.570Z,10.60
2022-08-24T02:09:21.650Z,9.80
2022-08-24T02:09:31.720Z,9.00
2022-08-24T02:09:41.780Z,12.40
2022-08-24T02:09:51.850Z,13.40
2022-08-24T02:10:01.923Z,13.40
2022-08-24T02:10:11.991Z,10.70
2022-08-24T02:10:22.068Z,11.20
2022-08-24T02:10:32.138Z,12.20
2022-08-24T02:10:42.219Z,12.20
2022-08-24T02:10:56.577Z,12.80
2022-08-24T02:11:03.201Z,12.90
2022-08-24T02:11:13.283Z,15.10
2022-08-24T02:11:23.343Z,14.70
2022-08-24T02:11:33.410Z,13.50
2022-08-24T02:11:43.481Z,11.20
2022-08-24T02:11:53.570Z,11.80
2022-08-24T02:12:03.640Z,13.00
2022-08-24T02:12:13.711Z,13.70
2022-08-24T02:12:23.780Z,12.60
2022-08-24T02:12:33.879Z,13.50
2022-08-24T02:12:43.949Z,13.90
2022-08-24T02:12:54.019Z,14.10
2022-08-24T02:13:04.329Z,13.50
2022-08-24T02:13:14.100Z,13.20
2022-08-24T02:13:24.211Z,12.70